sensor_id;sensor_type;location;lat;lon;timestamp;temperature;humidity
28548;DHT22;15750;49.600;8.746;2023-02-01T00:01:32;13.70;52.30
28548;DHT22;15750;49.600;8.746;2023-02-01T00:04:01;13.70;52.20
28548;DHT22;15750;49.600;8.746;2023-02-01T00:06:29;13.70;52.30
28548;DHT22;15750;49.600;8.746;2023-02-01T00:08:58;13.70;52.30
28548;DHT22;15750;49.600;8.746;2023-02-01T00:11:27;13.70;52.30
28548;DHT22;15750;49.600;8.746;2023-02-01T00:13:57;13.70;52.30
28548;DHT22;15750;49.600;8.746;2023-02-01T00:16:28;13.70;52.40
28548;DHT22;15750;49.600;8.746;2023-02-01T00:18:59;13.70;52.30
28548;DHT22;15750;49.600;8.746;2023-02-01T00:21:29;13.70;52.30
28548;DHT22;15750;49.600;8.746;2023-02-01T00:23:58;13.70;52.30
28548;DHT22;15750;49.600;8.746;2023-02-01T00:26:31;13.70;52.30
28548;DHT22;15750;49.600;8.746;2023-02-01T00:29:04;13.70;52.40
28548;DHT22;15750;49.600;8.746;2023-02-01T00:31:34;13.70;52.40
28548;DHT22;15750;49.600;8.746;2023-02-01T00:34:03;13.70;52.30
28548;DHT22;15750;49.600;8.746;2023-02-01T00:36:32;13.70;52.30
28548;DHT22;15750;49.600;8.746;2023-02-01T00:39:01;13.80;52.40
28548;DHT22;15750;49.600;8.746;2023-02-01T00:41:30;13.70;52.40
28548;DHT22;15750;49.600;8.746;2023-02-01T00:43:59;13.70;52.40
28548;DHT22;15750;49.600;8.746;2023-02-01T00:46:31;13.70;52.40
28548;DHT22;15750;49.600;8.746;2023-02-01T00:49:00;13.80;52.50
28548;DHT22;15750;49.600;8.746;2023-02-01T00:51:29;13.70;52.50
28548;DHT22;15750;49.600;8.746;2023-02-01T00:53:58;13.70;52.50
28548;DHT22;15750;49.600;8.746;2023-02-01T00:56:27;13.80;52.50
28548;DHT22;15750;49.600;8.746;2023-02-01T00:58:56;13.80;52.50
28548;DHT22;15750;49.600;8.746;2023-02-01T01:01:26;13.70;52.50
28548;DHT22;15750;49.600;8.746;2023-02-01T01:03:58;13.70;52.50
28548;DHT22;15750;49.600;8.746;2023-02-01T01:06:30;13.80;52.60
28548;DHT22;15750;49.600;8.746;2023-02-01T01:09:02;13.80;52.50
28548;DHT22;15750;49.600;8.746;2023-02-01T01:11:34;13.70;52.70
28548;DHT22;15750;49.600;8.746;2023-02-01T01:14:06;13.80;52.60
28548;DHT22;15750;49.600;8.746;2023-02-01T01:16:36;13.70;52.50
28548;DHT22;15750;49.600;8.746;2023-02-01T01:19:06;13.80;52.50
28548;DHT22;15750;49.600;8.746;2023-02-01T01:21:35;13.80;52.60
28548;DHT22;15750;49.600;8.746;2023-02-01T01:24:04;13.80;52.60
28548;DHT22;15750;49.600;8.746;2023-02-01T01:26:33;13.80;52.60
28548;DHT22;15750;49.600;8.746;2023-02-01T01:29:03;13.80;52.60
28548;DHT22;15750;49.600;8.746;2023-02-01T01:31:31;13.70;52.60
28548;DHT22;15750;49.600;8.746;2023-02-01T01:34:00;13.80;52.60
28548;DHT22;15750;49.600;8.746;2023-02-01T01:36:30;13.80;52.60
28548;DHT22;15750;49.600;8.746;2023-02-01T01:38:59;13.80;52.70
28548;DHT22;15750;49.600;8.746;2023-02-01T01:41:30;13.80;52.70
28548;DHT22;15750;49.600;8.746;2023-02-01T01:44:56;13.80;52.70
28548;DHT22;15750;49.600;8.746;2023-02-01T01:47:33;13.80;52.90
28548;DHT22;15750;49.600;8.746;2023-02-01T01:50:08;13.80;52.70
28548;DHT22;15750;49.600;8.746;2023-02-01T01:52:41;13.80;52.70
28548;DHT22;15750;49.600;8.746;2023-02-01T01:55:11;13.80;52.80
28548;DHT22;15750;49.600;8.746;2023-02-01T01:57:42;13.80;52.70
28548;DHT22;15750;49.600;8.746;2023-02-01T02:00:14;13.80;52.70
28548;DHT22;15750;49.600;8.746;2023-02-01T02:02:47;13.80;53.40
28548;DHT22;15750;49.600;8.746;2023-02-01T02:05:19;13.80;52.80
28548;DHT22;15750;49.600;8.746;2023-02-01T02:07:51;13.80;52.80
28548;DHT22;15750;49.600;8.746;2023-02-01T02:10:21;13.80;52.80
28548;DHT22;15750;49.600;8.746;2023-02-01T02:13:11;13.80;52.80
28548;DHT22;15750;49.600;8.746;2023-02-01T02:15:46;13.80;52.70
28548;DHT22;15750;49.600;8.746;2023-02-01T02:18:36;13.80;52.80
28548;DHT22;15750;49.600;8.746;2023-02-01T02:21:18;13.80;52.90
28548;DHT22;15750;49.600;8.746;2023-02-01T02:27:21;13.80;53.00
28548;DHT22;15750;49.600;8.746;2023-02-01T02:33:39;13.80;52.90
28548;DHT22;15750;49.600;8.746;2023-02-01T02:36:17;13.80;52.90
28548;DHT22;15750;49.600;8.746;2023-02-01T02:38:54;13.80;52.80
28548;DHT22;15750;49.600;8.746;2023-02-01T02:41:33;13.80;52.80
28548;DHT22;15750;49.600;8.746;2023-02-01T02:44:34;13.80;52.80
28548;DHT22;15750;49.600;8.746;2023-02-01T02:47:33;13.80;52.90
28548;DHT22;15750;49.600;8.746;2023-02-01T02:50:15;13.80;52.90
28548;DHT22;15750;49.600;8.746;2023-02-01T02:53:07;13.80;52.90
28548;DHT22;15750;49.600;8.746;2023-02-01T02:55:56;13.80;52.80
28548;DHT22;15750;49.600;8.746;2023-02-01T02:58:43;13.80;52.80
28548;DHT22;15750;49.600;8.746;2023-02-01T03:01:32;13.80;52.80
28548;DHT22;15750;49.600;8.746;2023-02-01T03:04:19;13.80;52.80
28548;DHT22;15750;49.600;8.746;2023-02-01T03:06:51;13.80;52.80
28548;DHT22;15750;49.600;8.746;2023-02-01T03:09:26;13.80;52.90
28548;DHT22;15750;49.600;8.746;2023-02-01T03:12:00;13.80;53.00
28548;DHT22;15750;49.600;8.746;2023-02-01T03:14:59;13.80;53.00
28548;DHT22;15750;49.600;8.746;2023-02-01T03:17:36;13.80;52.90
28548;DHT22;15750;49.600;8.746;2023-02-01T03:20:09;13.80;52.90
28548;DHT22;15750;49.600;8.746;2023-02-01T03:22:44;13.80;52.90
28548;DHT22;15750;49.600;8.746;2023-02-01T03:25:17;13.80;53.00
28548;DHT22;15750;49.600;8.746;2023-02-01T03:27:53;13.80;52.90
28548;DHT22;15750;49.600;8.746;2023-02-01T03:30:26;13.80;53.00
28548;DHT22;15750;49.600;8.746;2023-02-01T03:32:59;13.80;53.00
28548;DHT22;15750;49.600;8.746;2023-02-01T03:35:37;13.80;52.90
28548;DHT22;15750;49.600;8.746;2023-02-01T03:38:16;13.80;53.00
28548;DHT22;15750;49.600;8.746;2023-02-01T03:40:52;13.80;53.10
28548;DHT22;15750;49.600;8.746;2023-02-01T03:43:25;13.80;53.00
28548;DHT22;15750;49.600;8.746;2023-02-01T03:46:02;13.80;53.00
28548;DHT22;15750;49.600;8.746;2023-02-01T03:48:33;13.80;53.10
28548;DHT22;15750;49.600;8.746;2023-02-01T03:51:04;13.80;52.90
28548;DHT22;15750;49.600;8.746;2023-02-01T03:53:37;13.80;53.00
28548;DHT22;15750;49.600;8.746;2023-02-01T03:56:07;13.80;53.00
28548;DHT22;15750;49.600;8.746;2023-02-01T03:58:36;13.80;53.00
28548;DHT22;15750;49.600;8.746;2023-02-01T04:01:05;13.80;53.00
28548;DHT22;15750;49.600;8.746;2023-02-01T04:03:37;13.80;53.00
28548;DHT22;15750;49.600;8.746;2023-02-01T04:06:06;13.80;53.00
28548;DHT22;15750;49.600;8.746;2023-02-01T04:08:37;13.80;53.00
28548;DHT22;15750;49.600;8.746;2023-02-01T04:11:06;13.80;53.10
28548;DHT22;15750;49.600;8.746;2023-02-01T04:13:34;13.80;53.10
28548;DHT22;15750;49.600;8.746;2023-02-01T04:16:03;13.80;53.10
28548;DHT22;15750;49.600;8.746;2023-02-01T04:18:32;13.80;53.10
28548;DHT22;15750;49.600;8.746;2023-02-01T04:21:02;13.80;53.20
28548;DHT22;15750;49.600;8.746;2023-02-01T04:23:31;13.80;53.20
28548;DHT22;15750;49.600;8.746;2023-02-01T04:26:03;13.80;53.20
28548;DHT22;15750;49.600;8.746;2023-02-01T04:28:32;13.80;53.40
28548;DHT22;15750;49.600;8.746;2023-02-01T04:31:01;13.80;53.30
28548;DHT22;15750;49.600;8.746;2023-02-01T04:33:29;13.80;53.30
28548;DHT22;15750;49.600;8.746;2023-02-01T04:35:59;13.80;53.30
28548;DHT22;15750;49.600;8.746;2023-02-01T04:38:27;13.80;53.30
28548;DHT22;15750;49.600;8.746;2023-02-01T04:41:00;13.80;53.30
28548;DHT22;15750;49.600;8.746;2023-02-01T04:43:29;13.80;53.40
28548;DHT22;15750;49.600;8.746;2023-02-01T04:45:57;13.80;53.40
28548;DHT22;15750;49.600;8.746;2023-02-01T04:48:26;13.90;53.40
28548;DHT22;15750;49.600;8.746;2023-02-01T04:50:55;13.80;53.40
28548;DHT22;15750;49.600;8.746;2023-02-01T04:53:23;13.90;53.50
28548;DHT22;15750;49.600;8.746;2023-02-01T04:55:53;13.80;53.40
28548;DHT22;15750;49.600;8.746;2023-02-01T04:58:23;13.90;53.40
28548;DHT22;15750;49.600;8.746;2023-02-01T05:00:52;13.90;53.50
28548;DHT22;15750;49.600;8.746;2023-02-01T05:03:20;13.90;53.40
28548;DHT22;15750;49.600;8.746;2023-02-01T05:05:49;13.90;53.50
28548;DHT22;15750;49.600;8.746;2023-02-01T05:08:20;13.90;53.50
28548;DHT22;15750;49.600;8.746;2023-02-01T05:10:49;13.90;53.40
28548;DHT22;15750;49.600;8.746;2023-02-01T05:13:18;13.90;53.50
28548;DHT22;15750;49.600;8.746;2023-02-01T05:16:06;13.90;53.40
28548;DHT22;15750;49.600;8.746;2023-02-01T05:18:35;13.90;53.50
28548;DHT22;15750;49.600;8.746;2023-02-01T05:21:04;13.90;53.40
28548;DHT22;15750;49.600;8.746;2023-02-01T05:23:33;13.90;53.40
28548;DHT22;15750;49.600;8.746;2023-02-01T05:26:22;13.90;53.50
28548;DHT22;15750;49.600;8.746;2023-02-01T05:28:52;13.90;53.50
28548;DHT22;15750;49.600;8.746;2023-02-01T05:31:22;13.90;53.40
28548;DHT22;15750;49.600;8.746;2023-02-01T05:33:51;13.90;53.50
28548;DHT22;15750;49.600;8.746;2023-02-01T05:36:19;13.90;53.40
28548;DHT22;15750;49.600;8.746;2023-02-01T05:38:48;13.90;53.50
28548;DHT22;15750;49.600;8.746;2023-02-01T05:41:17;13.90;53.50
28548;DHT22;15750;49.600;8.746;2023-02-01T05:43:45;13.90;53.60
28548;DHT22;15750;49.600;8.746;2023-02-01T05:46:14;13.90;53.50
28548;DHT22;15750;49.600;8.746;2023-02-01T05:48:44;13.90;53.50
28548;DHT22;15750;49.600;8.746;2023-02-01T05:51:13;13.90;53.50
28548;DHT22;15750;49.600;8.746;2023-02-01T05:53:42;13.90;53.50
28548;DHT22;15750;49.600;8.746;2023-02-01T05:56:10;13.90;53.50
28548;DHT22;15750;49.600;8.746;2023-02-01T05:58:39;13.90;53.50
28548;DHT22;15750;49.600;8.746;2023-02-01T06:01:08;13.90;53.50
28548;DHT22;15750;49.600;8.746;2023-02-01T06:03:37;13.90;53.50
28548;DHT22;15750;49.600;8.746;2023-02-01T06:06:07;13.90;53.50
28548;DHT22;15750;49.600;8.746;2023-02-01T06:08:36;13.90;53.60
28548;DHT22;15750;49.600;8.746;2023-02-01T06:11:07;13.90;53.50
28548;DHT22;15750;49.600;8.746;2023-02-01T06:13:39;13.90;53.60
28548;DHT22;15750;49.600;8.746;2023-02-01T06:16:07;13.90;53.60
28548;DHT22;15750;49.600;8.746;2023-02-01T06:18:36;13.90;53.60
28548;DHT22;15750;49.600;8.746;2023-02-01T06:21:06;13.90;53.60
28548;DHT22;15750;49.600;8.746;2023-02-01T06:23:36;13.90;53.60
28548;DHT22;15750;49.600;8.746;2023-02-01T06:26:06;13.90;53.60
28548;DHT22;15750;49.600;8.746;2023-02-01T06:28:35;13.90;53.60
28548;DHT22;15750;49.600;8.746;2023-02-01T06:31:06;13.90;53.60
28548;DHT22;15750;49.600;8.746;2023-02-01T06:33:37;13.90;53.60
28548;DHT22;15750;49.600;8.746;2023-02-01T06:36:10;13.90;53.50
28548;DHT22;15750;49.600;8.746;2023-02-01T06:38:39;13.90;53.60
28548;DHT22;15750;49.600;8.746;2023-02-01T06:41:09;13.90;53.50
28548;DHT22;15750;49.600;8.746;2023-02-01T06:43:38;13.90;53.60
28548;DHT22;15750;49.600;8.746;2023-02-01T06:46:08;13.90;53.50
28548;DHT22;15750;49.600;8.746;2023-02-01T06:48:39;13.90;53.60
28548;DHT22;15750;49.600;8.746;2023-02-01T06:51:22;13.90;53.60
28548;DHT22;15750;49.600;8.746;2023-02-01T06:53:51;13.90;53.80
28548;DHT22;15750;49.600;8.746;2023-02-01T06:56:20;13.90;53.60
28548;DHT22;15750;49.600;8.746;2023-02-01T06:58:49;13.90;53.60
28548;DHT22;15750;49.600;8.746;2023-02-01T07:01:18;13.90;53.60
28548;DHT22;15750;49.600;8.746;2023-02-01T07:03:48;13.90;53.60
28548;DHT22;15750;49.600;8.746;2023-02-01T07:06:19;13.90;53.60
28548;DHT22;15750;49.600;8.746;2023-02-01T07:08:48;13.90;53.70
28548;DHT22;15750;49.600;8.746;2023-02-01T07:11:18;13.90;53.60
28548;DHT22;15750;49.600;8.746;2023-02-01T07:13:47;13.90;53.60
28548;DHT22;15750;49.600;8.746;2023-02-01T07:16:18;13.90;53.70
28548;DHT22;15750;49.600;8.746;2023-02-01T07:18:48;13.90;53.60
28548;DHT22;15750;49.600;8.746;2023-02-01T07:21:19;13.90;53.60
28548;DHT22;15750;49.600;8.746;2023-02-01T07:23:48;13.90;53.60
28548;DHT22;15750;49.600;8.746;2023-02-01T07:26:16;13.90;53.60
28548;DHT22;15750;49.600;8.746;2023-02-01T07:28:45;13.90;53.60
28548;DHT22;15750;49.600;8.746;2023-02-01T07:31:16;13.90;53.60
28548;DHT22;15750;49.600;8.746;2023-02-01T07:33:48;13.90;53.70
28548;DHT22;15750;49.600;8.746;2023-02-01T07:36:20;13.90;53.70
28548;DHT22;15750;49.600;8.746;2023-02-01T07:38:48;13.90;53.70
28548;DHT22;15750;49.600;8.746;2023-02-01T07:41:20;13.90;53.60
28548;DHT22;15750;49.600;8.746;2023-02-01T07:43:48;13.90;53.60
28548;DHT22;15750;49.600;8.746;2023-02-01T07:46:21;13.90;53.60
28548;DHT22;15750;49.600;8.746;2023-02-01T07:48:50;13.90;53.60
28548;DHT22;15750;49.600;8.746;2023-02-01T07:51:20;13.90;53.60
28548;DHT22;15750;49.600;8.746;2023-02-01T07:53:49;13.90;53.60
28548;DHT22;15750;49.600;8.746;2023-02-01T07:56:19;13.90;53.60
28548;DHT22;15750;49.600;8.746;2023-02-01T07:58:49;13.90;53.60
28548;DHT22;15750;49.600;8.746;2023-02-01T08:01:21;13.90;53.60
28548;DHT22;15750;49.600;8.746;2023-02-01T08:03:53;13.90;53.60
28548;DHT22;15750;49.600;8.746;2023-02-01T08:06:25;13.90;53.60
28548;DHT22;15750;49.600;8.746;2023-02-01T08:08:54;13.90;53.60
28548;DHT22;15750;49.600;8.746;2023-02-01T08:11:24;13.90;53.50
28548;DHT22;15750;49.600;8.746;2023-02-01T08:13:53;13.90;53.60
28548;DHT22;15750;49.600;8.746;2023-02-01T08:16:23;13.90;53.60
28548;DHT22;15750;49.600;8.746;2023-02-01T08:18:52;13.90;53.60
28548;DHT22;15750;49.600;8.746;2023-02-01T08:21:24;13.90;53.60
28548;DHT22;15750;49.600;8.746;2023-02-01T08:24:04;13.90;53.60
28548;DHT22;15750;49.600;8.746;2023-02-01T08:26:34;13.90;53.60
28548;DHT22;15750;49.600;8.746;2023-02-01T08:29:04;13.90;53.60
28548;DHT22;15750;49.600;8.746;2023-02-01T08:31:33;13.90;53.60
28548;DHT22;15750;49.600;8.746;2023-02-01T08:34:03;13.90;53.70
28548;DHT22;15750;49.600;8.746;2023-02-01T08:36:34;13.90;53.60
28548;DHT22;15750;49.600;8.746;2023-02-01T08:39:05;13.90;53.60
28548;DHT22;15750;49.600;8.746;2023-02-01T08:41:36;13.90;53.60
28548;DHT22;15750;49.600;8.746;2023-02-01T08:44:05;13.90;53.60
28548;DHT22;15750;49.600;8.746;2023-02-01T08:46:33;13.90;53.60
28548;DHT22;15750;49.600;8.746;2023-02-01T08:49:02;13.90;53.60
28548;DHT22;15750;49.600;8.746;2023-02-01T08:51:31;13.90;53.60
28548;DHT22;15750;49.600;8.746;2023-02-01T08:54:01;13.90;53.50
28548;DHT22;15750;49.600;8.746;2023-02-01T08:56:29;14.00;53.60
28548;DHT22;15750;49.600;8.746;2023-02-01T08:58:58;14.00;53.60
28548;DHT22;15750;49.600;8.746;2023-02-01T09:01:27;14.00;53.70
28548;DHT22;15750;49.600;8.746;2023-02-01T09:03:55;14.00;53.60
28548;DHT22;15750;49.600;8.746;2023-02-01T09:06:24;14.00;53.60
28548;DHT22;15750;49.600;8.746;2023-02-01T09:08:53;14.00;53.50
28548;DHT22;15750;49.600;8.746;2023-02-01T09:11:23;14.00;53.50
28548;DHT22;15750;49.600;8.746;2023-02-01T09:13:52;14.00;53.50
28548;DHT22;15750;49.600;8.746;2023-02-01T09:16:21;14.00;53.50
28548;DHT22;15750;49.600;8.746;2023-02-01T09:18:50;14.00;53.50
28548;DHT22;15750;49.600;8.746;2023-02-01T09:21:34;14.00;53.50
28548;DHT22;15750;49.600;8.746;2023-02-01T09:24:03;14.00;53.50
28548;DHT22;15750;49.600;8.746;2023-02-01T09:26:33;14.00;53.40
28548;DHT22;15750;49.600;8.746;2023-02-01T09:29:02;14.00;53.40
28548;DHT22;15750;49.600;8.746;2023-02-01T09:31:33;14.00;53.40
28548;DHT22;15750;49.600;8.746;2023-02-01T09:34:02;14.00;53.40
28548;DHT22;15750;49.600;8.746;2023-02-01T09:36:31;14.00;53.40
28548;DHT22;15750;49.600;8.746;2023-02-01T09:39:01;14.00;53.40
28548;DHT22;15750;49.600;8.746;2023-02-01T09:41:43;14.10;54.20
28548;DHT22;15750;49.600;8.746;2023-02-01T09:44:27;14.00;53.50
28548;DHT22;15750;49.600;8.746;2023-02-01T09:47:12;14.10;53.50
28548;DHT22;15750;49.600;8.746;2023-02-01T09:49:48;14.10;53.50
28548;DHT22;15750;49.600;8.746;2023-02-01T09:52:25;14.10;53.50
28548;DHT22;15750;49.600;8.746;2023-02-01T09:54:59;14.10;53.50
28548;DHT22;15750;49.600;8.746;2023-02-01T09:57:40;14.10;53.50
28548;DHT22;15750;49.600;8.746;2023-02-01T10:00:18;14.10;53.60
28548;DHT22;15750;49.600;8.746;2023-02-01T10:02:50;14.10;53.50
28548;DHT22;15750;49.600;8.746;2023-02-01T10:05:28;14.10;53.50
28548;DHT22;15750;49.600;8.746;2023-02-01T10:08:11;14.10;53.50
28548;DHT22;15750;49.600;8.746;2023-02-01T10:10:48;14.10;53.40
28548;DHT22;15750;49.600;8.746;2023-02-01T10:13:31;14.10;53.30
28548;DHT22;15750;49.600;8.746;2023-02-01T10:16:16;14.10;53.40
28548;DHT22;15750;49.600;8.746;2023-02-01T10:18:57;14.10;53.30
28548;DHT22;15750;49.600;8.746;2023-02-01T10:21:41;14.10;53.30
28548;DHT22;15750;49.600;8.746;2023-02-01T10:27:28;14.10;53.20
28548;DHT22;15750;49.600;8.746;2023-02-01T10:30:06;14.10;53.10
28548;DHT22;15750;49.600;8.746;2023-02-01T10:32:41;14.10;53.10
28548;DHT22;15750;49.600;8.746;2023-02-01T10:35:13;14.10;53.10
28548;DHT22;15750;49.600;8.746;2023-02-01T10:37:45;14.10;53.10
28548;DHT22;15750;49.600;8.746;2023-02-01T10:40:18;14.10;53.00
28548;DHT22;15750;49.600;8.746;2023-02-01T10:42:50;14.10;53.00
28548;DHT22;15750;49.600;8.746;2023-02-01T10:45:24;14.10;53.00
28548;DHT22;15750;49.600;8.746;2023-02-01T10:47:55;14.10;52.90
28548;DHT22;15750;49.600;8.746;2023-02-01T10:50:33;14.10;52.90
28548;DHT22;15750;49.600;8.746;2023-02-01T10:53:11;14.10;52.80
28548;DHT22;15750;49.600;8.746;2023-02-01T10:55:47;14.10;52.80
28548;DHT22;15750;49.600;8.746;2023-02-01T10:58:18;14.10;52.80
28548;DHT22;15750;49.600;8.746;2023-02-01T11:00:58;14.20;52.80
28548;DHT22;15750;49.600;8.746;2023-02-01T11:03:51;14.10;52.70
28548;DHT22;15750;49.600;8.746;2023-02-01T11:06:27;14.10;52.70
28548;DHT22;15750;49.600;8.746;2023-02-01T11:08:58;14.20;52.60
28548;DHT22;15750;49.600;8.746;2023-02-01T11:11:28;14.10;52.70
28548;DHT22;15750;49.600;8.746;2023-02-01T11:13:59;14.10;52.70
28548;DHT22;15750;49.600;8.746;2023-02-01T11:16:34;14.10;52.70
28548;DHT22;15750;49.600;8.746;2023-02-01T11:19:04;14.10;52.50
28548;DHT22;15750;49.600;8.746;2023-02-01T11:21:34;14.10;52.60
28548;DHT22;15750;49.600;8.746;2023-02-01T11:24:06;14.10;52.60
28548;DHT22;15750;49.600;8.746;2023-02-01T11:26:40;14.20;52.60
28548;DHT22;15750;49.600;8.746;2023-02-01T11:29:11;14.10;52.50
28548;DHT22;15750;49.600;8.746;2023-02-01T11:31:43;14.10;52.50
28548;DHT22;15750;49.600;8.746;2023-02-01T11:34:15;14.20;52.50
28548;DHT22;15750;49.600;8.746;2023-02-01T11:36:49;14.20;52.40
28548;DHT22;15750;49.600;8.746;2023-02-01T11:39:24;14.20;52.40
28548;DHT22;15750;49.600;8.746;2023-02-01T11:42:00;14.20;52.30
28548;DHT22;15750;49.600;8.746;2023-02-01T11:44:33;14.20;52.20
28548;DHT22;15750;49.600;8.746;2023-02-01T11:47:21;14.20;52.30
28548;DHT22;15750;49.600;8.746;2023-02-01T11:49:52;14.20;52.20
28548;DHT22;15750;49.600;8.746;2023-02-01T11:52:38;14.20;52.30
28548;DHT22;15750;49.600;8.746;2023-02-01T11:55:39;14.20;52.10
28548;DHT22;15750;49.600;8.746;2023-02-01T11:58:24;14.20;52.10
28548;DHT22;15750;49.600;8.746;2023-02-01T12:01:11;14.20;52.00
28548;DHT22;15750;49.600;8.746;2023-02-01T12:08:02;14.20;52.00
28548;DHT22;15750;49.600;8.746;2023-02-01T12:10:52;14.30;52.00
28548;DHT22;15750;49.600;8.746;2023-02-01T12:13:40;14.20;52.00
28548;DHT22;15750;49.600;8.746;2023-02-01T12:16:27;14.20;52.00
28548;DHT22;15750;49.600;8.746;2023-02-01T12:19:15;14.20;52.00
28548;DHT22;15750;49.600;8.746;2023-02-01T12:22:31;14.20;52.00
28548;DHT22;15750;49.600;8.746;2023-02-01T12:25:26;14.20;52.10
28548;DHT22;15750;49.600;8.746;2023-02-01T12:28:29;14.20;51.90
28548;DHT22;15750;49.600;8.746;2023-02-01T12:31:38;14.20;51.90
28548;DHT22;15750;49.600;8.746;2023-02-01T12:34:36;14.20;51.90
28548;DHT22;15750;49.600;8.746;2023-02-01T12:37:18;14.30;52.00
28548;DHT22;15750;49.600;8.746;2023-02-01T12:40:04;14.30;51.90
28548;DHT22;15750;49.600;8.746;2023-02-01T12:42:47;14.20;51.80
28548;DHT22;15750;49.600;8.746;2023-02-01T12:45:26;14.30;52.00
28548;DHT22;15750;49.600;8.746;2023-02-01T12:48:03;14.20;51.80
28548;DHT22;15750;49.600;8.746;2023-02-01T12:50:49;14.20;51.90
28548;DHT22;15750;49.600;8.746;2023-02-01T12:53:23;14.20;51.80
28548;DHT22;15750;49.600;8.746;2023-02-01T12:55:55;14.20;51.80
28548;DHT22;15750;49.600;8.746;2023-02-01T12:58:30;14.20;51.80
28548;DHT22;15750;49.600;8.746;2023-02-01T13:01:06;14.20;51.80
28548;DHT22;15750;49.600;8.746;2023-02-01T13:03:41;14.20;51.70
28548;DHT22;15750;49.600;8.746;2023-02-01T13:06:17;14.20;51.70
28548;DHT22;15750;49.600;8.746;2023-02-01T13:08:53;14.30;51.70
28548;DHT22;15750;49.600;8.746;2023-02-01T13:11:29;14.20;51.60
28548;DHT22;15750;49.600;8.746;2023-02-01T13:14:02;14.30;51.60
28548;DHT22;15750;49.600;8.746;2023-02-01T13:16:37;14.30;51.60
28548;DHT22;15750;49.600;8.746;2023-02-01T13:19:14;14.20;51.50
28548;DHT22;15750;49.600;8.746;2023-02-01T13:21:51;14.30;51.50
28548;DHT22;15750;49.600;8.746;2023-02-01T13:24:32;14.30;51.40
28548;DHT22;15750;49.600;8.746;2023-02-01T13:27:05;14.30;51.30
28548;DHT22;15750;49.600;8.746;2023-02-01T13:29:34;14.30;51.50
28548;DHT22;15750;49.600;8.746;2023-02-01T13:32:37;14.30;51.50
28548;DHT22;15750;49.600;8.746;2023-02-01T13:36:08;14.30;51.30
28548;DHT22;15750;49.600;8.746;2023-02-01T13:42:20;14.30;51.00
28548;DHT22;15750;49.600;8.746;2023-02-01T13:44:52;14.30;51.20
28548;DHT22;15750;49.600;8.746;2023-02-01T13:47:28;14.30;51.20
28548;DHT22;15750;49.600;8.746;2023-02-01T13:50:01;14.30;51.20
28548;DHT22;15750;49.600;8.746;2023-02-01T13:52:37;14.30;51.10
28548;DHT22;15750;49.600;8.746;2023-02-01T13:55:33;14.30;50.90
28548;DHT22;15750;49.600;8.746;2023-02-01T13:58:18;14.30;50.90
28548;DHT22;15750;49.600;8.746;2023-02-01T14:00:50;14.30;50.90
28548;DHT22;15750;49.600;8.746;2023-02-01T14:03:20;14.30;51.10
28548;DHT22;15750;49.600;8.746;2023-02-01T14:06:14;14.30;51.10
28548;DHT22;15750;49.600;8.746;2023-02-01T14:08:46;14.30;50.90
28548;DHT22;15750;49.600;8.746;2023-02-01T14:11:44;14.30;51.10
28548;DHT22;15750;49.600;8.746;2023-02-01T14:14:46;14.30;50.90
28548;DHT22;15750;49.600;8.746;2023-02-01T14:17:34;14.30;50.90
28548;DHT22;15750;49.600;8.746;2023-02-01T14:23:27;14.30;50.90
28548;DHT22;15750;49.600;8.746;2023-02-01T14:26:13;14.30;50.90
28548;DHT22;15750;49.600;8.746;2023-02-01T14:28:57;14.30;50.80
28548;DHT22;15750;49.600;8.746;2023-02-01T14:34:37;14.30;50.90
28548;DHT22;15750;49.600;8.746;2023-02-01T14:37:22;14.30;50.90
28548;DHT22;15750;49.600;8.746;2023-02-01T14:40:02;14.30;50.90
28548;DHT22;15750;49.600;8.746;2023-02-01T14:42:38;14.30;50.80
28548;DHT22;15750;49.600;8.746;2023-02-01T14:48:53;14.30;50.70
28548;DHT22;15750;49.600;8.746;2023-02-01T14:51:24;14.30;50.70
28548;DHT22;15750;49.600;8.746;2023-02-01T14:53:53;14.30;50.80
28548;DHT22;15750;49.600;8.746;2023-02-01T14:56:22;14.30;50.80
28548;DHT22;15750;49.600;8.746;2023-02-01T14:58:56;14.30;50.80
28548;DHT22;15750;49.600;8.746;2023-02-01T15:01:29;14.30;50.60
28548;DHT22;15750;49.600;8.746;2023-02-01T15:04:02;14.30;50.70
28548;DHT22;15750;49.600;8.746;2023-02-01T15:06:37;14.30;50.70
28548;DHT22;15750;49.600;8.746;2023-02-01T15:09:10;14.30;50.60
28548;DHT22;15750;49.600;8.746;2023-02-01T15:11:58;14.30;50.60
28548;DHT22;15750;49.600;8.746;2023-02-01T15:14:31;14.30;50.40
28548;DHT22;15750;49.600;8.746;2023-02-01T15:17:03;14.30;50.60
28548;DHT22;15750;49.600;8.746;2023-02-01T15:19:52;14.30;50.50
28548;DHT22;15750;49.600;8.746;2023-02-01T15:22:22;14.30;50.30
28548;DHT22;15750;49.600;8.746;2023-02-01T15:24:53;14.30;50.50
28548;DHT22;15750;49.600;8.746;2023-02-01T15:27:22;14.30;50.50
28548;DHT22;15750;49.600;8.746;2023-02-01T15:29:51;14.30;50.50
28548;DHT22;15750;49.600;8.746;2023-02-01T15:32:32;14.30;50.50
28548;DHT22;15750;49.600;8.746;2023-02-01T15:35:02;14.30;50.30
28548;DHT22;15750;49.600;8.746;2023-02-01T15:37:32;14.30;50.50
28548;DHT22;15750;49.600;8.746;2023-02-01T15:40:19;14.30;50.50
28548;DHT22;15750;49.600;8.746;2023-02-01T15:42:52;14.30;50.20
28548;DHT22;15750;49.600;8.746;2023-02-01T15:45:26;14.30;50.40
28548;DHT22;15750;49.600;8.746;2023-02-01T15:47:58;14.30;50.30
28548;DHT22;15750;49.600;8.746;2023-02-01T15:50:29;14.30;50.30
28548;DHT22;15750;49.600;8.746;2023-02-01T15:52:59;14.30;50.30
28548;DHT22;15750;49.600;8.746;2023-02-01T15:55:34;14.30;50.30
28548;DHT22;15750;49.600;8.746;2023-02-01T15:58:09;14.30;50.10
28548;DHT22;15750;49.600;8.746;2023-02-01T16:00:45;14.30;50.30
28548;DHT22;15750;49.600;8.746;2023-02-01T16:03:32;14.30;50.30
28548;DHT22;15750;49.600;8.746;2023-02-01T16:06:05;14.30;50.00
28548;DHT22;15750;49.600;8.746;2023-02-01T16:08:35;14.30;50.30
28548;DHT22;15750;49.600;8.746;2023-02-01T16:11:22;14.40;50.30
28548;DHT22;15750;49.600;8.746;2023-02-01T16:13:53;14.40;50.00
28548;DHT22;15750;49.600;8.746;2023-02-01T16:16:21;14.40;50.30
28548;DHT22;15750;49.600;8.746;2023-02-01T16:18:51;14.40;50.20
28548;DHT22;15750;49.600;8.746;2023-02-01T16:21:20;14.40;50.20
28548;DHT22;15750;49.600;8.746;2023-02-01T16:23:50;14.30;50.20
28548;DHT22;15750;49.600;8.746;2023-02-01T16:26:19;14.40;50.20
28548;DHT22;15750;49.600;8.746;2023-02-01T16:28:48;14.40;50.20
28548;DHT22;15750;49.600;8.746;2023-02-01T16:31:18;14.40;50.20
28548;DHT22;15750;49.600;8.746;2023-02-01T16:33:52;14.30;50.70
28548;DHT22;15750;49.600;8.746;2023-02-01T16:36:21;14.40;50.00
28548;DHT22;15750;49.600;8.746;2023-02-01T16:38:49;14.40;50.10
28548;DHT22;15750;49.600;8.746;2023-02-01T16:41:21;14.40;50.10
28548;DHT22;15750;49.600;8.746;2023-02-01T16:43:52;14.40;50.10